Greaterville, Arizona
Current Conditions -  °F | °C
As of 7:56 PM on Friday 21 Nov 2014 (Local Time) from KALK Reporting Station
Overcast Overcast  
Wind Chill: 50°   Ceiling: 9000
Heat Index: 50°   Visibility: 10mi
Dew Point: 21°   Wind: 10mph
Humidity: 32%   Direction: 260°W
Pressure: 30.03"   Gusts: NA
Location:  31.7987°N, 110.687°W
Report Text: KALK 220256Z AUTO 26009KT 10SM OVC090 10/M06 A3003 RMK AO2 SLP117 T01001061 53018 TSNO
Loading
Personal Weather Stations






























Interactive Weather Map New forecast layout! Learn more

10-Day Weather Forecast

Advertisements
Track Severe Weather on mobile